createdAt,value
2022-09-20T00:01:29.805Z,4.30
2022-09-20T00:03:59.077Z,3.23
2022-09-20T00:06:28.849Z,2.70
2022-09-20T00:08:57.405Z,2.50
2022-09-20T00:11:27.877Z,3.63
2022-09-20T00:13:57.474Z,2.17
2022-09-20T00:16:27.594Z,1.37
2022-09-20T00:18:57.150Z,1.17
2022-09-20T00:21:27.464Z,0.90
2022-09-20T00:23:57.754Z,1.27
2022-09-20T00:26:27.021Z,1.70
2022-09-20T00:28:55.822Z,1.43
2022-09-20T00:31:24.867Z,1.30
2022-09-20T00:34:15.381Z,0.80
2022-09-20T00:36:44.093Z,0.80
2022-09-20T00:39:13.802Z,0.87
2022-09-20T00:41:42.067Z,0.90
2022-09-20T00:45:04.599Z,1.07
2022-09-20T00:47:38.695Z,1.37
2022-09-20T00:50:35.365Z,1.20
2022-09-20T00:53:26.471Z,1.20
2022-09-20T00:56:03.159Z,1.20
2022-09-20T00:58:33.013Z,1.03
2022-09-20T01:01:01.401Z,0.70
2022-09-20T01:03:32.288Z,0.80
2022-09-20T01:06:03.552Z,0.93
2022-09-20T01:08:32.370Z,0.90
2022-09-20T01:11:00.737Z,0.70
2022-09-20T01:13:29.206Z,0.80
2022-09-20T01:15:59.243Z,1.07
2022-09-20T01:18:28.473Z,0.60
2022-09-20T01:20:56.807Z,0.63
2022-09-20T01:24:00.178Z,0.77
2022-09-20T01:26:44.648Z,0.60
2022-09-20T01:29:40.754Z,0.60
2022-09-20T01:32:13.053Z,1.07
2022-09-20T01:34:46.499Z,1.00
2022-09-20T01:37:27.300Z,1.13
2022-09-20T01:40:03.309Z,1.03
2022-09-20T01:42:34.363Z,1.37
2022-09-20T01:45:21.930Z,1.90
2022-09-20T01:48:04.120Z,1.90
2022-09-20T01:50:53.690Z,1.30
2022-09-20T01:53:39.708Z,1.13
2022-09-20T01:56:28.355Z,1.17
2022-09-20T01:59:22.443Z,1.50
2022-09-20T02:01:53.998Z,0.97
2022-09-20T02:04:46.693Z,1.57
2022-09-20T02:07:52.623Z,0.53
2022-09-20T02:10:23.771Z,0.57
2022-09-20T02:13:31.084Z,1.03
2022-09-20T02:16:23.866Z,2.67
2022-09-20T02:19:07.126Z,4.60
2022-09-20T02:21:44.140Z,7.93
2022-09-20T02:24:31.191Z,11.87
2022-09-20T02:27:11.757Z,7.10
2022-09-20T02:29:53.993Z,5.97
2022-09-20T02:32:53.109Z,6.00
2022-09-20T02:36:12.459Z,17.97
2022-09-20T02:39:04.685Z,15.80
2022-09-20T02:42:23.912Z,11.10
2022-09-20T02:45:07.937Z,17.13
2022-09-20T02:47:40.794Z,16.63
2022-09-20T02:50:32.804Z,13.00
2022-09-20T02:53:13.374Z,5.03
2022-09-20T02:55:50.693Z,2.97
2022-09-20T02:58:34.194Z,3.67
2022-09-20T03:01:25.682Z,1.80
2022-09-20T03:04:14.425Z,1.03
2022-09-20T03:07:04.417Z,2.20
2022-09-20T03:09:51.065Z,6.27
2022-09-20T03:12:37.831Z,6.13
2022-09-20T03:15:23.175Z,3.90
2022-09-20T03:17:59.414Z,10.50
2022-09-20T03:20:36.307Z,5.60
2022-09-20T03:23:18.325Z,5.80
2022-09-20T03:25:57.613Z,5.67
2022-09-20T03:28:51.215Z,4.73
2022-09-20T03:31:26.333Z,3.63
2022-09-20T03:34:50.180Z,3.73
2022-09-20T03:37:30.836Z,2.90
2022-09-20T03:40:12.209Z,4.20
2022-09-20T03:42:52.076Z,2.90
2022-09-20T03:45:53.540Z,2.07
2022-09-20T03:48:53.915Z,2.30
2022-09-20T03:51:23.983Z,3.07
2022-09-20T03:54:17.505Z,4.00
2022-09-20T03:57:13.030Z,2.83
2022-09-20T03:59:48.333Z,1.50
2022-09-20T04:02:39.996Z,2.73
2022-09-20T04:05:13.080Z,2.63
2022-09-20T04:07:53.336Z,2.60
2022-09-20T04:10:36.748Z,1.90
2022-09-20T04:13:36.451Z,2.87
2022-09-20T04:16:35.864Z,2.27
2022-09-20T04:19:10.227Z,2.33
2022-09-20T04:21:40.060Z,2.80
2022-09-20T04:24:38.809Z,1.43
2022-09-20T04:27:09.969Z,1.60
2022-09-20T04:30:00.404Z,1.67
2022-09-20T04:32:53.568Z,1.53
2022-09-20T04:35:52.167Z,2.30
2022-09-20T04:38:21.331Z,2.00
2022-09-20T04:41:28.315Z,2.10
2022-09-20T04:44:12.299Z,7.47
2022-09-20T04:46:46.788Z,5.80
2022-09-20T04:49:36.050Z,1.90
2022-09-20T04:52:16.526Z,1.50
2022-09-20T04:54:56.094Z,2.07
2022-09-20T04:57:27.289Z,2.70
2022-09-20T05:00:13.104Z,2.03
2022-09-20T05:03:02.609Z,1.60
2022-09-20T05:05:46.040Z,1.93
2022-09-20T05:09:02.375Z,2.80
2022-09-20T05:11:55.492Z,2.00
2022-09-20T05:14:33.417Z,2.47
2022-09-20T05:17:20.327Z,2.00
2022-09-20T05:20:25.574Z,2.40
2022-09-20T05:23:26.084Z,2.67
2022-09-20T05:26:22.141Z,2.67
2022-09-20T05:28:53.935Z,3.57
2022-09-20T05:31:43.800Z,3.87
2022-09-20T05:34:42.577Z,3.67
2022-09-20T05:37:51.391Z,3.60
2022-09-20T05:40:41.497Z,3.07
2022-09-20T05:43:14.838Z,2.07
2022-09-20T05:46:03.412Z,2.27
2022-09-20T05:48:45.532Z,2.13
2022-09-20T05:51:51.567Z,1.90
2022-09-20T05:54:32.098Z,1.97
2022-09-20T05:57:12.141Z,1.50
2022-09-20T06:00:01.399Z,1.60
2022-09-20T06:02:54.371Z,2.03
2022-09-20T06:06:01.341Z,7.20
2022-09-20T06:08:51.619Z,1.17
2022-09-20T06:11:38.601Z,1.90
2022-09-20T06:14:44.327Z,1.60
2022-09-20T06:17:21.539Z,1.33
2022-09-20T06:20:03.697Z,1.67
2022-09-20T06:22:35.158Z,1.10
2022-09-20T06:25:09.597Z,1.10
2022-09-20T06:28:16.266Z,0.90
2022-09-20T06:30:51.067Z,0.70
2022-09-20T06:33:29.292Z,2.23
2022-09-20T06:36:25.909Z,0.93
2022-09-20T06:39:47.491Z,0.83
2022-09-20T06:42:15.950Z,0.80
2022-09-20T06:44:44.374Z,0.93
2022-09-20T06:47:13.252Z,0.97
2022-09-20T06:49:43.030Z,0.97
2022-09-20T06:52:15.143Z,0.73
2022-09-20T06:54:46.026Z,0.70
2022-09-20T06:57:18.875Z,0.70
2022-09-20T06:59:47.320Z,1.10
2022-09-20T07:02:15.615Z,0.77
2022-09-20T07:04:44.878Z,1.00
2022-09-20T07:07:15.917Z,0.87
2022-09-20T07:09:44.509Z,3.93
2022-09-20T07:12:12.876Z,0.60
2022-09-20T07:14:41.932Z,0.73
2022-09-20T07:17:10.281Z,0.53
2022-09-20T07:19:38.718Z,0.70
2022-09-20T07:22:07.009Z,0.80
2022-09-20T07:24:35.454Z,0.40
2022-09-20T07:27:05.289Z,0.50
2022-09-20T07:29:35.578Z,0.50
2022-09-20T07:32:04.038Z,0.50
2022-09-20T07:34:32.457Z,0.30
2022-09-20T07:37:00.752Z,0.30
2022-09-20T07:39:29.590Z,0.40
2022-09-20T07:41:57.904Z,0.60
2022-09-20T07:44:26.316Z,0.43
2022-09-20T07:46:56.060Z,0.20
2022-09-20T07:49:25.164Z,0.30
2022-09-20T07:51:53.899Z,0.37
2022-09-20T07:54:22.345Z,0.43
2022-09-20T07:56:50.808Z,0.37
2022-09-20T07:59:19.128Z,0.50
2022-09-20T08:01:47.777Z,0.40
2022-09-20T08:04:16.317Z,1.00
2022-09-20T08:06:45.295Z,1.20
2022-09-20T08:09:15.002Z,0.60
2022-09-20T08:11:44.100Z,0.40
2022-09-20T08:14:16.929Z,0.30
2022-09-20T08:16:47.616Z,0.40
2022-09-20T08:19:18.425Z,0.60
2022-09-20T08:21:47.256Z,0.30
2022-09-20T08:24:16.648Z,0.47
2022-09-20T08:26:46.671Z,0.70
2022-09-20T08:29:17.759Z,0.50
2022-09-20T08:31:47.535Z,0.40
2022-09-20T08:34:16.459Z,0.40
2022-09-20T08:36:47.142Z,0.30
2022-09-20T08:42:18.972Z,0.20
2022-09-20T08:45:00.525Z,0.30
2022-09-20T08:47:33.492Z,0.37
2022-09-20T08:50:09.033Z,0.40
2022-09-20T08:52:40.387Z,0.30
2022-09-20T08:55:20.088Z,0.30
2022-09-20T08:57:52.624Z,0.40
2022-09-20T09:00:28.462Z,0.30
2022-09-20T09:02:58.655Z,0.23
2022-09-20T09:05:31.783Z,0.40
2022-09-20T09:08:01.364Z,0.30
2022-09-20T09:10:32.774Z,0.40
2022-09-20T09:13:01.120Z,0.30
2022-09-20T09:15:32.194Z,0.47
2022-09-20T09:18:00.657Z,0.23
2022-09-20T09:20:29.026Z,0.30
2022-09-20T09:23:05.669Z,0.37
2022-09-20T09:25:39.371Z,0.30
2022-09-20T09:28:07.525Z,0.30
2022-09-20T09:30:38.572Z,0.30
2022-09-20T09:33:30.205Z,0.40
2022-09-20T09:36:02.560Z,0.37
2022-09-20T09:38:39.164Z,0.50
2022-09-20T09:41:27.122Z,0.30
2022-09-20T09:44:27.963Z,0.40
2022-09-20T09:46:57.231Z,0.82
2022-09-20T09:49:26.869Z,0.30
2022-09-20T09:52:02.000Z,0.30
2022-09-20T09:54:32.839Z,0.75
2022-09-20T09:57:26.162Z,0.30
2022-09-20T10:00:20.584Z,0.35
2022-09-20T10:03:11.192Z,0.52
2022-09-20T10:06:04.950Z,0.32
2022-09-20T10:08:52.515Z,0.40
2022-09-20T10:11:58.929Z,0.35
2022-09-20T10:14:58.203Z,0.55
2022-09-20T10:17:37.220Z,0.30
2022-09-20T10:20:20.603Z,0.20
2022-09-20T10:23:39.471Z,0.20
2022-09-20T10:25:59.640Z,0.20
2022-09-20T10:29:04.591Z,0.30
2022-09-20T10:31:42.832Z,0.40
2022-09-20T10:34:59.323Z,0.17
2022-09-20T10:37:49.801Z,0.30
2022-09-20T10:41:18.234Z,0.30
2022-09-20T10:44:11.035Z,0.20
2022-09-20T10:46:42.295Z,0.30
2022-09-20T10:49:29.957Z,0.20
2022-09-20T10:52:10.656Z,0.50
2022-09-20T10:55:09.482Z,0.20
2022-09-20T10:57:51.132Z,1.85
2022-09-20T11:00:29.709Z,0.20
2022-09-20T11:03:19.535Z,0.30
2022-09-20T11:06:02.711Z,0.20
2022-09-20T11:08:34.326Z,0.20
2022-09-20T11:11:10.860Z,0.30
2022-09-20T11:13:57.387Z,0.28
2022-09-20T11:16:53.449Z,0.30
2022-09-20T11:19:31.665Z,0.20
2022-09-20T11:22:06.531Z,0.20
2022-09-20T11:25:04.909Z,0.30
2022-09-20T11:27:34.627Z,0.30
2022-09-20T11:30:28.011Z,0.38
2022-09-20T11:33:05.690Z,0.20
2022-09-20T11:35:39.139Z,0.40
2022-09-20T11:38:22.625Z,0.17
2022-09-20T11:40:58.339Z,0.40
2022-09-20T11:43:30.598Z,0.25
2022-09-20T11:46:10.430Z,0.20
2022-09-20T11:48:49.037Z,0.30
2022-09-20T11:51:46.679Z,0.40
2022-09-20T11:54:53.336Z,0.30
2022-09-20T11:57:24.634Z,0.50
2022-09-20T11:59:56.079Z,0.30
2022-09-20T12:02:43.450Z,0.20
2022-09-20T12:05:38.610Z,0.20
2022-09-20T12:08:40.112Z,0.47
2022-09-20T12:11:12.895Z,0.30
2022-09-20T12:13:42.770Z,0.35
2022-09-20T12:16:16.441Z,0.40
2022-09-20T12:18:48.874Z,0.35
2022-09-20T12:21:18.827Z,0.30
2022-09-20T12:23:53.878Z,0.25
2022-09-20T12:26:22.166Z,0.30
2022-09-20T12:28:54.409Z,0.30
2022-09-20T12:31:22.896Z,0.22
2022-09-20T12:33:59.531Z,0.30
2022-09-20T12:36:31.387Z,0.38
2022-09-20T12:39:04.037Z,0.30
2022-09-20T12:41:48.042Z,0.30
2022-09-20T12:44:37.923Z,0.20
2022-09-20T12:47:09.478Z,0.25
2022-09-20T12:50:34.562Z,0.30
2022-09-20T12:53:10.053Z,0.30
2022-09-20T12:55:51.909Z,0.20
2022-09-20T12:58:23.210Z,0.30
2022-09-20T13:00:54.784Z,0.85
2022-09-20T13:03:52.454Z,0.35
2022-09-20T13:06:20.932Z,0.35
2022-09-20T13:09:09.315Z,0.30
2022-09-20T13:12:11.037Z,0.30
2022-09-20T13:14:39.473Z,0.30
2022-09-20T13:17:22.603Z,0.30
2022-09-20T13:19:50.934Z,0.30
2022-09-20T13:22:45.772Z,0.30
2022-09-20T13:25:15.365Z,0.30
2022-09-20T13:28:08.870Z,0.45
2022-09-20T13:30:37.543Z,0.30
2022-09-20T13:33:38.229Z,0.22
2022-09-20T13:36:06.488Z,0.40
2022-09-20T13:38:35.234Z,0.40
2022-09-20T13:41:13.250Z,0.40
2022-09-20T13:43:48.792Z,0.30
2022-09-20T13:46:22.658Z,0.47
2022-09-20T13:48:59.818Z,0.47
2022-09-20T13:51:28.776Z,6.63
2022-09-20T13:54:18.134Z,0.40
2022-09-20T13:56:46.487Z,0.40
2022-09-20T13:59:19.703Z,1.00
2022-09-20T14:01:55.757Z,0.63
2022-09-20T14:04:25.148Z,0.47
2022-09-20T14:06:54.836Z,2.85
2022-09-20T14:09:30.240Z,2.45
2022-09-20T14:11:59.347Z,0.55
2022-09-20T14:14:27.862Z,0.50
2022-09-20T14:16:57.142Z,0.50
2022-09-20T14:19:32.078Z,0.50
2022-09-20T14:22:06.523Z,10.60
2022-09-20T14:24:37.492Z,1.90
2022-09-20T14:27:18.311Z,0.75
2022-09-20T14:29:49.316Z,0.40
2022-09-20T14:32:17.549Z,3.95
2022-09-20T14:35:02.334Z,2.50
2022-09-20T14:37:36.476Z,0.88
2022-09-20T14:40:07.783Z,2.83
2022-09-20T14:42:41.682Z,59.83
2022-09-20T14:45:28.190Z,42.47
2022-09-20T14:48:09.583Z,12.32
2022-09-20T14:50:42.788Z,25.15
2022-09-20T14:53:11.379Z,37.90
2022-09-20T14:55:42.607Z,26.98
2022-09-20T14:58:12.546Z,46.45
2022-09-20T15:00:52.182Z,50.95
2022-09-20T15:03:41.997Z,61.38
2022-09-20T15:06:11.152Z,39.33
2022-09-20T15:08:45.460Z,19.02
2022-09-20T15:11:16.324Z,3.75
2022-09-20T15:13:44.754Z,0.60
2022-09-20T15:16:13.799Z,0.60
2022-09-20T15:18:43.060Z,0.40
2022-09-20T15:21:12.792Z,0.50
2022-09-20T15:23:41.394Z,0.63
2022-09-20T15:26:13.203Z,0.40
2022-09-20T15:28:41.711Z,0.30
2022-09-20T15:31:11.517Z,0.60
2022-09-20T15:33:40.415Z,2.73
2022-09-20T15:36:09.628Z,0.60
2022-09-20T15:38:38.448Z,0.60
2022-09-20T15:41:07.928Z,0.60
2022-09-20T15:43:36.336Z,0.50
2022-09-20T15:46:21.360Z,0.60
2022-09-20T15:48:50.235Z,0.50
2022-09-20T15:51:18.763Z,0.40
2022-09-20T15:53:57.736Z,0.93
2022-09-20T15:56:33.436Z,0.57
2022-09-20T15:59:07.086Z,1.63
2022-09-20T16:01:40.114Z,0.85
2022-09-20T16:04:12.995Z,2.60
2022-09-20T16:06:42.563Z,2.40
2022-09-20T16:09:10.882Z,1.98
2022-09-20T16:11:39.387Z,0.95
2022-09-20T16:14:07.980Z,3.65
2022-09-20T16:16:40.768Z,5.78
2022-09-20T16:19:18.275Z,1.40
2022-09-20T16:21:58.910Z,1.63
2022-09-20T16:24:29.589Z,1.00
2022-09-20T16:27:01.557Z,1.80
2022-09-20T16:29:33.888Z,1.50
2022-09-20T16:32:03.965Z,1.97
2022-09-20T16:34:33.933Z,1.03
2022-09-20T16:37:08.096Z,0.80
2022-09-20T16:39:37.623Z,1.53
2022-09-20T16:42:07.670Z,0.93
2022-09-20T16:44:38.013Z,1.07
2022-09-20T16:47:09.239Z,1.53
2022-09-20T16:49:37.917Z,0.77
2022-09-20T16:52:09.686Z,1.93
2022-09-20T16:54:39.446Z,18.67
2022-09-20T16:57:08.476Z,4.70
2022-09-20T16:59:39.823Z,2.90
2022-09-20T17:02:11.314Z,1.30
2022-09-20T17:04:40.106Z,0.77
2022-09-20T17:07:09.049Z,0.70
2022-09-20T17:09:37.408Z,0.70
2022-09-20T17:12:09.684Z,3.47
2022-09-20T17:14:38.169Z,2.60
2022-09-20T17:17:06.594Z,1.70
2022-09-20T17:19:35.035Z,2.10
2022-09-20T17:22:04.812Z,6.57
2022-09-20T17:24:34.021Z,9.27
2022-09-20T17:27:08.527Z,6.83
2022-09-20T17:29:37.774Z,6.53
2022-09-20T17:32:12.941Z,25.20
2022-09-20T17:34:46.071Z,24.17
2022-09-20T17:37:18.059Z,14.03
2022-09-20T17:39:46.596Z,7.93
2022-09-20T17:42:22.126Z,4.03
2022-09-20T17:44:57.139Z,4.17
2022-09-20T17:47:27.108Z,6.97
2022-09-20T17:50:04.466Z,2.53
2022-09-20T17:52:34.104Z,2.33
2022-09-20T17:55:02.387Z,2.07
2022-09-20T17:57:32.940Z,3.10
2022-09-20T18:00:05.289Z,7.10
2022-09-20T18:02:34.679Z,4.00
2022-09-20T18:05:06.352Z,2.53
2022-09-20T18:07:37.495Z,5.33
2022-09-20T18:10:11.845Z,3.33
2022-09-20T18:12:43.530Z,6.00
2022-09-20T18:15:12.191Z,3.83
2022-09-20T18:17:41.022Z,5.37
2022-09-20T18:36:29.094Z,3.73
2022-09-20T18:38:58.144Z,2.50
2022-09-20T18:41:46.750Z,4.90
2022-09-20T18:44:15.282Z,2.37
2022-09-20T18:46:43.827Z,2.07
2022-09-20T18:49:14.830Z,2.17
2022-09-20T18:51:43.645Z,3.17
2022-09-20T18:54:12.642Z,3.20
2022-09-20T18:56:44.043Z,4.17
2022-09-20T18:59:24.366Z,3.13
2022-09-20T19:01:55.779Z,2.90
2022-09-20T19:04:46.318Z,3.70
2022-09-20T19:07:17.459Z,2.67
2022-09-20T19:09:58.223Z,3.37
2022-09-20T19:12:41.788Z,4.00
2022-09-20T19:15:32.344Z,3.07
2022-09-20T19:18:29.018Z,1.80
2022-09-20T19:21:08.625Z,2.00
2022-09-20T19:23:57.949Z,2.07
2022-09-20T19:26:31.183Z,2.50
2022-09-20T19:29:02.328Z,1.63
2022-09-20T19:31:33.828Z,1.27
2022-09-20T19:34:10.412Z,1.93
2022-09-20T19:36:53.796Z,2.37
2022-09-20T19:39:28.118Z,1.70
2022-09-20T19:42:16.804Z,1.40
2022-09-20T19:45:15.560Z,1.70
2022-09-20T19:48:18.211Z,1.43
2022-09-20T19:50:52.826Z,1.70
2022-09-20T19:53:24.783Z,1.70
2022-09-20T19:55:59.205Z,2.10
2022-09-20T19:58:31.167Z,2.53
2022-09-20T20:01:02.276Z,2.57
2022-09-20T20:03:30.828Z,2.23
2022-09-20T20:06:14.481Z,2.60
2022-09-20T20:08:49.082Z,2.13
2022-09-20T20:11:29.618Z,2.40
2022-09-20T20:14:18.057Z,6.57
2022-09-20T20:17:19.485Z,2.87
2022-09-20T20:20:06.536Z,2.27
2022-09-20T20:22:59.630Z,1.90
2022-09-20T20:25:37.596Z,1.83
2022-09-20T20:28:06.005Z,1.83
2022-09-20T20:30:35.094Z,2.60
2022-09-20T20:33:05.411Z,1.47
2022-09-20T20:35:33.689Z,2.00
2022-09-20T20:38:02.148Z,2.07
2022-09-20T20:40:30.506Z,1.40
2022-09-20T20:43:02.327Z,1.20
2022-09-20T20:45:30.630Z,1.10
2022-09-20T20:47:59.405Z,1.40
2022-09-20T20:50:28.404Z,1.30
2022-09-20T20:52:57.447Z,2.20
2022-09-20T20:55:25.853Z,1.93
2022-09-20T20:57:58.562Z,2.07
2022-09-20T21:00:27.330Z,1.80
2022-09-20T21:03:00.121Z,3.07
2022-09-20T21:05:28.723Z,3.27
2022-09-20T21:07:58.189Z,1.97
2022-09-20T21:10:26.609Z,2.43
2022-09-20T21:12:55.224Z,1.80
2022-09-20T21:15:23.597Z,2.00
2022-09-20T21:17:52.616Z,1.53
2022-09-20T21:20:21.838Z,1.60
2022-09-20T21:22:50.268Z,1.37
2022-09-20T21:25:18.592Z,1.63
2022-09-20T21:27:46.969Z,2.83
2022-09-20T21:30:15.560Z,3.10
2022-09-20T21:32:43.846Z,2.73
2022-09-20T21:35:12.238Z,2.33
2022-09-20T21:37:41.543Z,1.50
2022-09-20T21:40:10.763Z,3.53
2022-09-20T21:42:39.406Z,1.83
2022-09-20T21:45:09.959Z,1.60
2022-09-20T21:47:38.249Z,1.93
2022-09-20T21:50:07.143Z,1.60
2022-09-20T21:52:35.455Z,2.57
2022-09-20T21:55:07.261Z,1.57
2022-09-20T21:57:35.717Z,2.67
2022-09-20T22:00:04.901Z,1.70
2022-09-20T22:02:40.676Z,1.40
2022-09-20T22:05:09.287Z,1.67
2022-09-20T22:07:37.614Z,2.27
2022-09-20T22:10:06.266Z,1.70
2022-09-20T22:12:34.552Z,1.70
2022-09-20T22:15:03.020Z,1.83
2022-09-20T22:17:31.282Z,1.87
2022-09-20T22:19:59.788Z,2.37
2022-09-20T22:22:28.089Z,2.10
2022-09-20T22:24:56.935Z,1.80
2022-09-20T22:27:25.208Z,1.80
2022-09-20T22:29:53.952Z,1.40
2022-09-20T22:32:22.995Z,1.30
2022-09-20T22:34:51.451Z,1.97
2022-09-20T22:37:19.796Z,2.00
2022-09-20T22:39:48.033Z,1.20
2022-09-20T22:42:16.386Z,1.23
2022-09-20T22:44:44.688Z,1.20
2022-09-20T22:47:13.107Z,2.07
2022-09-20T22:49:41.379Z,0.90
2022-09-20T22:52:09.586Z,0.97
2022-09-20T22:54:37.918Z,1.30
2022-09-20T22:57:06.216Z,1.10
2022-09-20T22:59:34.564Z,1.40
2022-09-20T23:02:02.948Z,1.40
2022-09-20T23:04:31.299Z,1.30
2022-09-20T23:06:59.556Z,1.37
2022-09-20T23:09:28.558Z,1.03
2022-09-20T23:11:56.822Z,1.47
2022-09-20T23:14:25.223Z,1.57
2022-09-20T23:16:53.604Z,1.87
2022-09-20T23:19:21.962Z,1.20
2022-09-20T23:21:50.209Z,1.70
2022-09-20T23:24:18.493Z,4.00
2022-09-20T23:26:47.033Z,3.93
2022-09-20T23:29:15.911Z,1.53
2022-09-20T23:31:46.373Z,1.60
2022-09-20T23:34:15.746Z,1.80
2022-09-20T23:36:44.306Z,1.47
2022-09-20T23:39:12.740Z,3.87
2022-09-20T23:41:41.833Z,2.73
2022-09-20T23:44:11.795Z,1.27
2022-09-20T23:46:40.216Z,1.50
2022-09-20T23:49:09.644Z,1.47
2022-09-20T23:51:38.483Z,1.47
2022-09-20T23:54:06.730Z,1.63
2022-09-20T23:56:36.158Z,2.73
2022-09-20T23:59:04.489Z,1.50
